createdAt,value
2019-01-31T00:01:09.026Z,0.90
2019-01-31T00:04:11.020Z,1.30
2019-01-31T00:07:04.431Z,1.62
2019-01-31T00:09:47.213Z,7.60
2019-01-31T00:12:36.966Z,1.35
2019-01-31T00:15:22.227Z,1.00
2019-01-31T00:18:14.585Z,2.55
2019-01-31T00:20:56.241Z,1.67
2019-01-31T00:23:29.910Z,1.95
2019-01-31T00:26:14.406Z,1.20
2019-01-31T00:29:05.286Z,2.27
2019-01-31T00:32:20.168Z,1.42
2019-01-31T00:35:28.789Z,1.40
2019-01-31T00:38:29.653Z,1.92
2019-01-31T00:41:10.749Z,1.45
2019-01-31T00:43:46.450Z,3.90
2019-01-31T00:46:29.581Z,6.58
2019-01-31T00:49:07.833Z,1.95
2019-01-31T00:51:57.590Z,3.17
2019-01-31T00:54:31.351Z,12.50
2019-01-31T00:57:16.222Z,6.60
2019-01-31T01:00:09.088Z,1.87
2019-01-31T01:02:53.955Z,3.47
2019-01-31T01:05:55.634Z,3.35
2019-01-31T01:08:39.522Z,2.00
2019-01-31T01:11:24.170Z,1.75
2019-01-31T01:14:07.470Z,1.35
2019-01-31T01:16:59.135Z,2.70
2019-01-31T01:20:00.010Z,1.60
2019-01-31T01:22:45.222Z,0.93
2019-01-31T01:25:37.849Z,1.22
2019-01-31T01:28:16.454Z,1.20
2019-01-31T01:31:08.966Z,7.78
2019-01-31T01:34:10.838Z,1.75
2019-01-31T01:36:57.078Z,1.10
2019-01-31T01:39:49.034Z,0.88
2019-01-31T01:42:34.998Z,1.32
2019-01-31T01:45:25.938Z,4.10
2019-01-31T01:48:03.082Z,1.37
2019-01-31T01:50:38.793Z,1.02
2019-01-31T01:53:27.043Z,1.02
2019-01-31T01:56:05.778Z,3.70
2019-01-31T01:59:05.644Z,1.10
2019-01-31T02:02:03.502Z,1.00
2019-01-31T02:04:39.018Z,11.03
2019-01-31T02:07:23.534Z,2.25
2019-01-31T02:10:19.098Z,1.85
2019-01-31T02:13:10.966Z,10.63
2019-01-31T02:16:03.794Z,1.60
2019-01-31T02:18:41.220Z,1.15
2019-01-31T02:21:23.131Z,3.45
2019-01-31T02:23:56.926Z,4.40
2019-01-31T02:26:41.283Z,1.40
2019-01-31T02:29:32.066Z,1.15
2019-01-31T02:32:54.063Z,1.75
2019-01-31T02:35:42.951Z,0.90
2019-01-31T02:38:38.167Z,1.65
2019-01-31T02:41:36.515Z,1.70
2019-01-31T02:44:38.310Z,0.80
2019-01-31T02:47:32.435Z,1.02
2019-01-31T02:50:38.643Z,1.00
2019-01-31T02:53:30.840Z,1.32
2019-01-31T02:56:17.292Z,2.60
2019-01-31T02:58:59.541Z,0.82
2019-01-31T03:01:33.388Z,1.65
2019-01-31T03:04:15.145Z,4.50
2019-01-31T03:07:24.214Z,3.72
2019-01-31T03:10:35.619Z,2.55
2019-01-31T03:13:38.604Z,1.10
2019-01-31T03:16:21.900Z,1.10
2019-01-31T03:18:56.739Z,1.10
2019-01-31T03:21:42.422Z,0.82
2019-01-31T03:24:42.298Z,0.70
2019-01-31T03:27:34.227Z,1.05
2019-01-31T03:30:32.732Z,0.60
2019-01-31T03:33:20.403Z,0.70
2019-01-31T03:36:15.783Z,1.52
2019-01-31T03:38:50.151Z,6.47
2019-01-31T03:41:46.490Z,2.02
2019-01-31T03:44:30.050Z,0.70
2019-01-31T03:47:24.140Z,1.67
2019-01-31T03:50:18.910Z,0.88
2019-01-31T03:53:37.575Z,0.70
2019-01-31T03:56:34.362Z,0.72
2019-01-31T03:59:10.574Z,0.85
2019-01-31T04:01:49.126Z,2.90
2019-01-31T04:04:27.440Z,1.22
2019-01-31T04:06:57.279Z,2.05
2019-01-31T04:09:27.879Z,7.25
2019-01-31T04:11:57.851Z,4.45
2019-01-31T04:14:34.211Z,1.30
2019-01-31T04:17:06.275Z,1.00
2019-01-31T04:19:36.378Z,4.03
2019-01-31T04:22:13.042Z,1.75
2019-01-31T04:24:45.698Z,2.47
2019-01-31T04:27:17.370Z,4.12
2019-01-31T04:29:47.330Z,3.70
2019-01-31T04:32:24.982Z,1.12
2019-01-31T04:34:54.681Z,2.92
2019-01-31T04:37:30.350Z,1.35
2019-01-31T04:40:01.339Z,1.50
2019-01-31T04:42:33.126Z,1.40
2019-01-31T04:45:02.943Z,1.52
2019-01-31T04:47:32.898Z,1.85
2019-01-31T04:50:07.250Z,5.72
2019-01-31T04:52:38.263Z,7.60
2019-01-31T04:55:08.875Z,1.27
2019-01-31T04:57:40.682Z,2.27
2019-01-31T05:00:17.108Z,1.27
2019-01-31T05:02:56.066Z,0.80
2019-01-31T05:05:26.966Z,2.50
2019-01-31T05:08:05.297Z,4.30
2019-01-31T05:10:42.832Z,4.22
2019-01-31T05:13:09.486Z,0.88
2019-01-31T05:15:39.446Z,3.25
2019-01-31T05:18:09.554Z,8.63
2019-01-31T05:20:40.334Z,1.47
2019-01-31T05:23:15.302Z,2.45
2019-01-31T05:25:45.147Z,1.20
2019-01-31T05:28:14.838Z,3.90
2019-01-31T05:30:46.788Z,5.33
2019-01-31T05:33:17.809Z,1.85
2019-01-31T05:35:47.491Z,2.83
2019-01-31T05:38:18.394Z,1.20
2019-01-31T05:40:55.507Z,8.85
2019-01-31T05:43:23.506Z,3.50
2019-01-31T05:45:54.110Z,1.15
2019-01-31T05:48:24.746Z,3.45
2019-01-31T05:50:54.498Z,6.37
2019-01-31T05:53:34.474Z,6.90
2019-01-31T05:56:04.335Z,1.50
2019-01-31T05:58:34.367Z,3.22
2019-01-31T06:01:06.291Z,2.87
2019-01-31T06:03:35.978Z,7.95
2019-01-31T06:06:07.667Z,6.47
2019-01-31T06:08:37.632Z,3.25
2019-01-31T06:11:08.406Z,8.03
2019-01-31T06:13:38.411Z,3.00
2019-01-31T06:16:17.400Z,3.40
2019-01-31T06:18:53.002Z,2.55
2019-01-31T06:21:29.518Z,5.35
2019-01-31T06:24:00.498Z,3.17
2019-01-31T06:26:38.574Z,7.25
2019-01-31T06:29:20.901Z,1.67
2019-01-31T06:31:51.804Z,2.65
2019-01-31T06:34:23.858Z,1.65
2019-01-31T06:36:53.690Z,2.60
2019-01-31T06:39:33.514Z,3.20
2019-01-31T06:42:03.638Z,6.35
2019-01-31T06:44:34.690Z,4.60
2019-01-31T06:47:05.778Z,10.72
2019-01-31T06:49:35.610Z,6.80
2019-01-31T06:52:08.518Z,1.45
2019-01-31T06:54:45.499Z,2.95
2019-01-31T06:57:15.595Z,13.10
2019-01-31T06:59:45.437Z,5.15
2019-01-31T07:02:15.118Z,2.30
2019-01-31T07:04:44.806Z,3.45
2019-01-31T07:07:14.786Z,4.05
2019-01-31T07:09:44.598Z,3.33
2019-01-31T07:12:16.544Z,5.25
2019-01-31T07:14:52.434Z,1.65
2019-01-31T07:17:23.090Z,3.85
2019-01-31T07:19:56.544Z,5.17
2019-01-31T07:22:25.864Z,8.43
2019-01-31T07:24:55.766Z,2.25
2019-01-31T07:27:25.734Z,5.15
2019-01-31T07:29:55.726Z,8.18
2019-01-31T07:32:25.674Z,2.40
2019-01-31T07:34:55.506Z,2.40
2019-01-31T07:37:25.188Z,2.25
2019-01-31T07:39:56.810Z,2.60
2019-01-31T07:42:26.779Z,5.03
2019-01-31T07:44:57.034Z,2.47
2019-01-31T07:47:26.966Z,3.90
2019-01-31T07:49:58.855Z,4.65
2019-01-31T07:52:29.955Z,6.78
2019-01-31T07:55:01.844Z,7.65
2019-01-31T07:57:32.376Z,12.40
2019-01-31T08:00:02.218Z,2.05
2019-01-31T08:02:32.882Z,2.60
2019-01-31T08:05:02.918Z,6.15
2019-01-31T08:07:42.742Z,3.33
2019-01-31T08:10:18.170Z,7.25
2019-01-31T08:12:50.870Z,2.65
2019-01-31T08:15:21.035Z,5.08
2019-01-31T08:17:51.126Z,5.08
2019-01-31T08:20:21.186Z,4.15
2019-01-31T08:22:50.866Z,3.47
2019-01-31T08:25:25.071Z,4.00
2019-01-31T08:27:55.607Z,2.77
2019-01-31T08:30:30.960Z,9.95
2019-01-31T08:33:03.920Z,3.60
2019-01-31T08:35:33.670Z,3.45
2019-01-31T08:38:03.690Z,3.08
2019-01-31T08:40:34.346Z,3.92
2019-01-31T08:43:04.422Z,4.47
2019-01-31T08:45:34.099Z,6.87
2019-01-31T08:48:04.527Z,4.90
2019-01-31T08:50:34.383Z,3.52
2019-01-31T08:53:05.107Z,4.70
2019-01-31T08:55:38.820Z,11.73
2019-01-31T08:58:11.259Z,4.03
2019-01-31T09:00:41.234Z,5.53
2019-01-31T09:03:10.920Z,4.37
2019-01-31T09:05:40.591Z,5.75
2019-01-31T09:08:10.298Z,8.48
2019-01-31T09:10:41.122Z,3.90
2019-01-31T09:13:11.902Z,4.85
2019-01-31T09:15:41.574Z,4.10
2019-01-31T09:18:11.254Z,4.50
2019-01-31T09:20:50.621Z,16.10
2019-01-31T09:23:23.367Z,5.83
2019-01-31T09:26:11.007Z,12.85
2019-01-31T09:29:10.603Z,5.00
2019-01-31T09:31:49.895Z,2.70
2019-01-31T09:34:37.582Z,7.65
2019-01-31T09:37:13.051Z,5.80
2019-01-31T09:39:54.462Z,11.70
2019-01-31T09:42:38.238Z,4.65
2019-01-31T09:45:11.039Z,2.60
2019-01-31T09:47:46.595Z,2.58
2019-01-31T09:50:38.049Z,3.02
2019-01-31T09:53:28.622Z,2.00
2019-01-31T09:56:19.411Z,4.65
2019-01-31T09:58:52.199Z,4.95
2019-01-31T10:01:25.123Z,6.25
2019-01-31T10:04:07.687Z,6.37
2019-01-31T10:07:03.135Z,2.15
2019-01-31T10:09:38.580Z,4.83
2019-01-31T10:12:38.291Z,3.75
2019-01-31T10:15:17.845Z,1.92
2019-01-31T10:17:53.199Z,11.55
2019-01-31T10:20:28.577Z,5.10
2019-01-31T10:23:14.841Z,4.20
2019-01-31T10:25:59.727Z,3.17
2019-01-31T10:28:54.803Z,5.33
2019-01-31T10:31:36.503Z,3.90
2019-01-31T10:34:17.919Z,1.80
2019-01-31T10:36:53.599Z,2.15
2019-01-31T10:39:35.560Z,2.33
2019-01-31T10:42:25.159Z,2.85
2019-01-31T10:45:15.635Z,2.80
2019-01-31T10:47:54.115Z,5.85
2019-01-31T10:51:07.671Z,2.20
2019-01-31T10:53:54.327Z,3.10
2019-01-31T10:56:58.547Z,10.23
2019-01-31T10:59:51.087Z,1.77
2019-01-31T11:03:05.064Z,3.60
2019-01-31T11:05:46.532Z,4.70
2019-01-31T11:09:00.333Z,5.30
2019-01-31T11:11:34.899Z,4.67
2019-01-31T11:14:20.075Z,1.77
2019-01-31T11:17:25.711Z,4.13
2019-01-31T11:20:19.427Z,1.93
2019-01-31T11:23:06.908Z,4.17
2019-01-31T11:26:07.312Z,9.83
2019-01-31T11:28:51.976Z,2.30
2019-01-31T11:31:43.271Z,1.60
2019-01-31T11:34:32.693Z,2.80
2019-01-31T11:37:05.579Z,1.73
2019-01-31T11:39:44.075Z,3.90
2019-01-31T11:42:29.920Z,3.47
2019-01-31T11:45:33.106Z,3.13
2019-01-31T11:48:19.963Z,5.00
2019-01-31T11:51:29.352Z,1.50
2019-01-31T11:54:35.292Z,3.15
2019-01-31T11:57:31.334Z,5.10
2019-01-31T12:00:01.176Z,1.40
2019-01-31T12:02:31.138Z,2.02
2019-01-31T12:05:00.968Z,4.72
2019-01-31T12:07:37.713Z,4.12
2019-01-31T12:10:10.853Z,5.37
2019-01-31T12:12:43.742Z,1.85
2019-01-31T12:15:12.370Z,1.90
2019-01-31T12:17:42.067Z,5.22
2019-01-31T12:20:16.671Z,7.62
2019-01-31T12:22:52.479Z,3.42
2019-01-31T12:25:28.375Z,1.87
2019-01-31T12:28:03.016Z,4.62
2019-01-31T12:30:34.851Z,4.08
2019-01-31T12:33:05.065Z,2.10
2019-01-31T12:35:35.934Z,4.20
2019-01-31T12:38:05.626Z,2.83
2019-01-31T12:40:36.723Z,5.80
2019-01-31T12:43:06.567Z,6.47
2019-01-31T12:45:38.203Z,1.73
2019-01-31T12:48:16.907Z,2.37
2019-01-31T12:50:46.971Z,2.87
2019-01-31T12:53:17.000Z,2.10
2019-01-31T12:55:46.827Z,2.03
2019-01-31T12:58:17.539Z,2.30
2019-01-31T13:00:47.579Z,4.30
2019-01-31T13:03:19.299Z,2.90
2019-01-31T13:05:50.329Z,3.13
2019-01-31T13:08:20.439Z,2.17
2019-01-31T13:10:52.415Z,2.93
2019-01-31T13:13:24.506Z,7.20
2019-01-31T13:15:55.212Z,1.97
2019-01-31T13:18:25.359Z,4.63
2019-01-31T13:20:56.491Z,1.93
2019-01-31T13:23:26.332Z,2.90
2019-01-31T13:25:56.431Z,4.50
2019-01-31T13:28:27.251Z,9.70
2019-01-31T13:30:56.974Z,2.43
2019-01-31T13:33:26.687Z,3.20
2019-01-31T13:35:58.287Z,4.20
2019-01-31T13:38:28.231Z,8.53
2019-01-31T13:40:58.333Z,8.97
2019-01-31T13:43:28.199Z,2.30
2019-01-31T13:46:00.454Z,2.03
2019-01-31T13:48:31.267Z,2.40
2019-01-31T13:51:01.016Z,3.40
2019-01-31T13:53:32.861Z,5.97
2019-01-31T13:56:02.705Z,1.57
2019-01-31T13:58:32.415Z,8.58
2019-01-31T14:01:02.116Z,1.90
2019-01-31T14:03:32.832Z,2.27
2019-01-31T14:06:04.467Z,3.37
2019-01-31T14:08:34.213Z,3.30
2019-01-31T14:11:04.117Z,5.80
2019-01-31T14:13:44.308Z,2.57
2019-01-31T14:16:14.599Z,3.37
2019-01-31T14:18:47.431Z,3.50
2019-01-31T14:21:17.406Z,2.25
2019-01-31T14:23:47.247Z,2.02
2019-01-31T14:26:18.143Z,3.37
2019-01-31T14:28:48.015Z,2.25
2019-01-31T14:31:18.710Z,1.70
2019-01-31T14:33:48.408Z,3.25
2019-01-31T14:36:18.366Z,1.98
2019-01-31T14:38:49.492Z,3.05
2019-01-31T14:41:20.487Z,6.53
2019-01-31T14:43:50.597Z,7.42
2019-01-31T14:46:20.704Z,2.92
2019-01-31T14:48:51.816Z,2.20
2019-01-31T14:51:26.798Z,2.65
2019-01-31T14:53:58.661Z,1.90
2019-01-31T14:56:28.749Z,15.43
2019-01-31T14:58:59.809Z,2.25
2019-01-31T15:01:29.902Z,2.22
2019-01-31T15:04:05.916Z,3.72
2019-01-31T15:06:46.537Z,3.45
2019-01-31T15:09:16.240Z,7.28
2019-01-31T15:11:45.928Z,1.82
2019-01-31T15:14:19.656Z,3.55
2019-01-31T15:16:52.109Z,4.83
2019-01-31T15:19:22.867Z,2.00
2019-01-31T15:21:52.556Z,7.72
2019-01-31T15:24:24.474Z,3.30
2019-01-31T15:27:02.105Z,3.15
2019-01-31T15:29:34.032Z,3.83
2019-01-31T15:32:05.141Z,3.67
2019-01-31T15:34:43.164Z,3.70
2019-01-31T15:37:14.200Z,2.60
2019-01-31T15:39:44.266Z,4.55
2019-01-31T15:42:14.214Z,9.90
2019-01-31T15:44:44.044Z,4.45
2019-01-31T15:47:16.586Z,6.80
2019-01-31T15:49:47.468Z,3.35
2019-01-31T15:52:17.296Z,4.78
2019-01-31T15:54:46.988Z,4.65
2019-01-31T15:57:17.672Z,9.93
2019-01-31T15:59:48.610Z,8.43
2019-01-31T16:02:19.520Z,4.22
2019-01-31T16:04:50.205Z,4.25
2019-01-31T16:07:20.805Z,3.17
2019-01-31T16:09:50.525Z,3.02
2019-01-31T16:12:21.209Z,4.90
2019-01-31T16:14:54.842Z,6.37
2019-01-31T16:17:29.124Z,9.68
2019-01-31T16:19:59.080Z,7.58
2019-01-31T16:22:29.920Z,2.83
2019-01-31T16:25:01.808Z,9.65
2019-01-31T16:27:31.788Z,7.58
2019-01-31T16:30:01.628Z,4.35
2019-01-31T16:32:31.320Z,5.60
2019-01-31T16:35:01.050Z,5.47
2019-01-31T16:37:32.948Z,6.40
2019-01-31T16:40:03.048Z,8.30
2019-01-31T16:42:37.000Z,7.55
2019-01-31T16:45:14.336Z,7.95
2019-01-31T16:47:46.144Z,5.65
2019-01-31T16:50:28.159Z,4.97
2019-01-31T16:53:00.180Z,3.40
2019-01-31T16:55:34.600Z,15.05
2019-01-31T16:58:15.484Z,10.80
2019-01-31T17:00:45.610Z,9.93
2019-01-31T17:03:20.721Z,7.65
2019-01-31T17:05:51.569Z,6.45
2019-01-31T17:08:21.664Z,6.55
2019-01-31T17:10:51.512Z,11.30
2019-01-31T17:13:22.436Z,16.65
2019-01-31T17:16:00.488Z,7.87
2019-01-31T17:18:39.180Z,5.78
2019-01-31T17:21:11.197Z,8.18
2019-01-31T17:23:42.244Z,6.58
2019-01-31T17:26:12.365Z,6.87
2019-01-31T17:28:42.500Z,5.75
2019-01-31T17:31:18.693Z,5.97
2019-01-31T17:33:48.781Z,8.63
2019-01-31T17:36:22.361Z,7.87
2019-01-31T17:38:54.080Z,10.00
2019-01-31T17:41:24.692Z,6.25
2019-01-31T17:43:54.701Z,9.83
2019-01-31T17:46:25.067Z,7.95
2019-01-31T17:48:55.124Z,10.30
2019-01-31T17:51:25.888Z,6.92
2019-01-31T17:53:55.857Z,13.22
2019-01-31T17:56:26.912Z,9.10
2019-01-31T17:58:57.931Z,17.82
2019-01-31T18:01:30.877Z,17.73
2019-01-31T18:04:00.905Z,21.97
2019-01-31T18:06:33.776Z,14.60
2019-01-31T18:09:08.388Z,14.85
2019-01-31T18:11:39.504Z,21.05
2019-01-31T18:14:09.369Z,11.30
2019-01-31T18:16:39.061Z,15.60
2019-01-31T18:19:13.431Z,11.35
2019-01-31T18:21:49.953Z,16.23
2019-01-31T18:24:26.877Z,9.48
2019-01-31T18:26:56.745Z,15.83
2019-01-31T18:29:28.677Z,10.28
2019-01-31T18:32:04.720Z,14.30
2019-01-31T18:34:48.037Z,17.80
2019-01-31T18:37:19.088Z,17.37
2019-01-31T18:39:51.167Z,21.35
2019-01-31T18:42:24.417Z,17.48
2019-01-31T18:45:01.191Z,10.55
2019-01-31T18:47:32.085Z,14.18
2019-01-31T18:50:13.788Z,14.20
2019-01-31T18:52:48.853Z,11.73
2019-01-31T18:55:23.177Z,14.00
2019-01-31T18:57:53.289Z,17.07
2019-01-31T19:00:35.605Z,16.25
2019-01-31T19:03:06.625Z,20.27
2019-01-31T19:05:38.962Z,17.77
2019-01-31T19:08:09.394Z,16.85
2019-01-31T19:10:43.333Z,16.17
2019-01-31T19:13:11.545Z,13.32
2019-01-31T19:15:46.374Z,12.18
2019-01-31T19:18:16.317Z,19.75
2019-01-31T19:20:48.453Z,18.65
2019-01-31T19:23:27.405Z,16.77
2019-01-31T19:26:04.401Z,12.78
2019-01-31T19:28:35.249Z,21.52
2019-01-31T19:31:50.855Z,19.57
2019-01-31T19:34:26.066Z,30.97
2019-01-31T19:37:00.243Z,19.20
2019-01-31T19:39:35.613Z,25.20
2019-01-31T19:42:10.034Z,19.67
2019-01-31T19:44:41.819Z,19.80
2019-01-31T19:47:13.489Z,26.82
2019-01-31T19:49:43.362Z,26.52
2019-01-31T19:52:52.234Z,24.67
2019-01-31T19:55:30.491Z,28.47
2019-01-31T19:58:00.623Z,27.67
2019-01-31T20:00:30.801Z,24.10
2019-01-31T20:03:03.042Z,31.30
2019-01-31T20:05:45.024Z,29.57
2019-01-31T20:08:16.005Z,31.25
2019-01-31T20:10:46.275Z,26.82
2019-01-31T20:13:16.129Z,27.25
2019-01-31T20:15:52.857Z,29.75
2019-01-31T20:18:22.645Z,35.78
2019-01-31T20:21:05.289Z,36.77
2019-01-31T20:23:35.149Z,42.43
2019-01-31T20:26:04.937Z,34.50
2019-01-31T20:28:35.721Z,27.75
2019-01-31T20:31:05.773Z,31.93
2019-01-31T20:33:35.688Z,33.85
2019-01-31T20:36:14.425Z,41.02
2019-01-31T20:39:07.741Z,33.28
2019-01-31T20:41:53.753Z,37.83
2019-01-31T20:44:26.389Z,34.48
2019-01-31T20:46:58.453Z,30.17
2019-01-31T20:49:30.277Z,51.83
2019-01-31T20:52:00.423Z,43.48
2019-01-31T20:54:31.457Z,41.90
2019-01-31T20:57:01.327Z,38.67
2019-01-31T20:59:33.525Z,33.83
2019-01-31T21:02:11.525Z,37.63
2019-01-31T21:04:41.630Z,37.63
2019-01-31T21:07:21.618Z,31.07
2019-01-31T21:09:59.977Z,34.80
2019-01-31T21:13:05.945Z,34.00
2019-01-31T21:15:37.337Z,35.23
2019-01-31T21:21:56.358Z,42.45
2019-01-31T21:28:26.853Z,45.12
2019-01-31T21:31:01.585Z,29.63
2019-01-31T21:34:11.417Z,43.80
2019-01-31T21:36:42.529Z,31.02
2019-01-31T21:39:21.611Z,37.25
2019-01-31T21:41:54.755Z,30.68
2019-01-31T21:44:47.922Z,33.88
2019-01-31T21:47:35.099Z,30.57
2019-01-31T21:50:11.253Z,30.97
2019-01-31T21:52:42.201Z,35.35
2019-01-31T21:55:13.691Z,43.00
2019-01-31T21:57:55.733Z,36.00
2019-01-31T22:00:42.297Z,37.93
2019-01-31T22:03:15.113Z,38.05
2019-01-31T22:06:36.810Z,28.57
2019-01-31T22:09:42.481Z,35.85
2019-01-31T22:12:13.281Z,30.25
2019-01-31T22:14:55.451Z,26.37
2019-01-31T22:17:27.388Z,25.90
2019-01-31T22:20:18.181Z,25.92
2019-01-31T22:22:53.979Z,39.20
2019-01-31T22:25:27.913Z,22.62
2019-01-31T22:28:06.549Z,22.13
2019-01-31T22:30:42.553Z,25.40
2019-01-31T22:33:20.413Z,24.85
2019-01-31T22:35:54.533Z,16.85
2019-01-31T22:38:25.221Z,26.90
2019-01-31T22:40:55.037Z,20.48
2019-01-31T22:43:26.566Z,21.35
2019-01-31T22:46:06.317Z,27.62
2019-01-31T22:48:51.076Z,21.42
2019-01-31T22:51:32.181Z,20.75
2019-01-31T22:54:05.729Z,26.73
2019-01-31T22:56:41.501Z,34.38
2019-01-31T22:59:11.621Z,26.50
2019-01-31T23:01:43.021Z,23.95
2019-01-31T23:04:19.869Z,19.37
2019-01-31T23:06:49.781Z,28.30
2019-01-31T23:09:20.849Z,24.95
2019-01-31T23:12:00.669Z,26.27
2019-01-31T23:14:35.430Z,26.75
2019-01-31T23:17:06.687Z,22.05
2019-01-31T23:19:43.595Z,28.20
2019-01-31T23:22:13.547Z,38.55
2019-01-31T23:24:46.333Z,20.92
2019-01-31T23:27:17.309Z,17.50
2019-01-31T23:29:50.450Z,23.22
2019-01-31T23:32:21.537Z,24.37
2019-01-31T23:34:51.522Z,28.05
2019-01-31T23:37:21.305Z,19.92
2019-01-31T23:39:51.270Z,19.40
2019-01-31T23:42:21.892Z,21.68
2019-01-31T23:44:52.581Z,25.97
2019-01-31T23:47:23.190Z,19.23
2019-01-31T23:49:52.973Z,22.15
2019-01-31T23:52:22.849Z,19.62
2019-01-31T23:54:52.603Z,25.65
2019-01-31T23:57:23.324Z,25.17
2019-01-31T23:59:54.041Z,23.77
